createdAt,value
2017-03-27T00:00:52.916Z,0.81
2017-03-27T00:01:53.446Z,0.75
2017-03-27T00:02:53.982Z,0.71
2017-03-27T00:03:54.511Z,0.71
2017-03-27T00:04:55.045Z,0.71
2017-03-27T00:05:55.585Z,0.79
2017-03-27T00:06:56.110Z,0.81
2017-03-27T00:07:56.636Z,0.76
2017-03-27T00:08:57.173Z,0.74
2017-03-27T00:09:57.706Z,0.68
2017-03-27T00:10:58.236Z,0.57
2017-03-27T00:11:58.766Z,0.48
2017-03-27T00:12:59.302Z,0.42
2017-03-27T00:13:59.860Z,0.42
2017-03-27T00:15:00.372Z,0.38
2017-03-27T00:16:00.902Z,0.37
2017-03-27T00:17:01.436Z,0.36
2017-03-27T00:18:01.990Z,0.34
2017-03-27T00:19:02.501Z,0.33
2017-03-27T00:20:03.031Z,0.31
2017-03-27T00:21:03.568Z,0.33
2017-03-27T00:22:04.097Z,0.31
2017-03-27T00:23:04.636Z,0.30
2017-03-27T00:24:05.319Z,0.26
2017-03-27T00:25:05.700Z,0.30
2017-03-27T00:26:06.230Z,0.26
2017-03-27T00:27:06.907Z,0.24
2017-03-27T00:28:07.294Z,0.23
2017-03-27T00:29:07.832Z,0.20
2017-03-27T00:30:08.361Z,0.16
2017-03-27T00:31:08.899Z,0.15
2017-03-27T00:32:09.432Z,0.12
2017-03-27T00:33:09.969Z,0.11
2017-03-27T00:34:10.502Z,0.15
2017-03-27T00:35:11.038Z,0.19
2017-03-27T00:36:11.577Z,0.34
2017-03-27T00:37:12.252Z,0.47
2017-03-27T00:38:12.641Z,0.49
2017-03-27T00:39:13.182Z,0.45
2017-03-27T00:40:13.715Z,0.40
2017-03-27T00:41:14.395Z,0.36
2017-03-27T00:42:14.783Z,0.31
2017-03-27T00:43:15.308Z,0.26
2017-03-27T00:44:15.835Z,0.23
2017-03-27T00:45:16.370Z,0.19
2017-03-27T00:46:16.916Z,0.18
2017-03-27T00:47:17.461Z,0.18
2017-03-27T00:48:17.974Z,0.19
2017-03-27T00:49:18.504Z,0.18
2017-03-27T00:50:19.040Z,0.16
2017-03-27T00:51:19.570Z,0.13
2017-03-27T00:52:20.255Z,0.15
2017-03-27T00:53:20.634Z,0.12
2017-03-27T00:54:21.171Z,0.09
2017-03-27T00:55:21.846Z,0.07
2017-03-27T00:56:22.241Z,0.04
2017-03-27T00:57:22.766Z,0.00
2017-03-27T00:58:23.296Z,-0.05
2017-03-27T00:59:23.836Z,-0.02
2017-03-27T01:00:24.361Z,0.05
2017-03-27T01:01:24.893Z,0.22
2017-03-27T01:02:25.435Z,0.26
2017-03-27T01:03:25.961Z,0.29
2017-03-27T01:04:26.491Z,0.34
2017-03-27T01:05:27.024Z,0.40
2017-03-27T01:06:27.558Z,0.37
2017-03-27T01:07:28.093Z,0.34
2017-03-27T01:08:28.628Z,0.30
2017-03-27T01:09:29.156Z,0.23
2017-03-27T01:10:29.687Z,0.16
2017-03-27T01:11:30.218Z,0.16
2017-03-27T01:12:30.759Z,0.12
2017-03-27T01:13:31.284Z,0.07
2017-03-27T01:14:31.971Z,0.04
2017-03-27T01:15:32.349Z,0.01
2017-03-27T01:16:32.880Z,0.01
2017-03-27T01:17:33.416Z,-0.02
2017-03-27T01:18:33.952Z,-0.05
2017-03-27T01:19:34.488Z,-0.06
2017-03-27T01:20:35.180Z,-0.08
2017-03-27T01:21:35.565Z,-0.06
2017-03-27T01:22:36.099Z,-0.14
2017-03-27T01:23:36.638Z,-0.17
2017-03-27T01:24:37.320Z,-0.21
2017-03-27T01:25:37.705Z,-0.21
2017-03-27T01:26:38.235Z,-0.24
2017-03-27T01:27:38.772Z,-0.25
2017-03-27T01:28:39.305Z,-0.22
2017-03-27T01:29:39.841Z,-0.21
2017-03-27T01:30:40.370Z,-0.18
2017-03-27T01:31:40.899Z,-0.18
2017-03-27T01:32:41.441Z,-0.17
2017-03-27T01:33:42.107Z,-0.18
2017-03-27T01:34:42.700Z,-0.14
2017-03-27T01:35:43.025Z,-0.13
2017-03-27T01:36:43.559Z,-0.06
2017-03-27T01:37:44.096Z,0.08
2017-03-27T01:38:44.626Z,0.12
2017-03-27T01:39:45.160Z,0.13
2017-03-27T01:40:45.689Z,0.16
2017-03-27T01:41:46.229Z,0.12
2017-03-27T01:42:46.761Z,0.12
2017-03-27T01:43:47.316Z,0.11
2017-03-27T01:44:47.826Z,0.09
2017-03-27T01:45:48.365Z,0.07
2017-03-27T01:46:48.901Z,0.02
2017-03-27T01:47:49.427Z,-0.01
2017-03-27T01:48:49.958Z,-0.03
2017-03-27T01:49:50.504Z,-0.10
2017-03-27T01:50:51.024Z,-0.20
2017-03-27T01:51:51.555Z,-0.24
2017-03-27T01:52:52.087Z,-0.25
2017-03-27T01:53:52.621Z,-0.28
2017-03-27T01:54:53.151Z,-0.31
2017-03-27T01:55:53.683Z,-0.32
2017-03-27T01:56:54.211Z,-0.36
2017-03-27T01:57:54.748Z,-0.29
2017-03-27T01:58:55.277Z,-0.24
2017-03-27T01:59:55.815Z,-0.21
2017-03-27T02:00:56.350Z,-0.14
2017-03-27T02:01:56.887Z,-0.15
2017-03-27T02:02:57.421Z,-0.18
2017-03-27T02:03:57.962Z,-0.21
2017-03-27T02:04:58.648Z,-0.25
2017-03-27T02:05:59.039Z,-0.28
2017-03-27T02:06:59.576Z,-0.27
2017-03-27T02:08:00.095Z,-0.28
2017-03-27T02:09:00.625Z,-0.25
2017-03-27T02:10:01.155Z,-0.28
2017-03-27T02:11:01.699Z,-0.32
2017-03-27T02:12:02.223Z,-0.39
2017-03-27T02:13:02.754Z,-0.42
2017-03-27T02:14:03.289Z,-0.43
2017-03-27T02:15:03.816Z,-0.47
2017-03-27T02:16:04.352Z,-0.52
2017-03-27T02:17:04.888Z,-0.52
2017-03-27T02:18:05.416Z,-0.54
2017-03-27T02:19:05.965Z,-0.56
2017-03-27T02:20:06.485Z,-0.56
2017-03-27T02:21:07.018Z,-0.56
2017-03-27T02:22:07.556Z,-0.59
2017-03-27T02:23:08.083Z,-0.62
2017-03-27T02:24:08.616Z,-0.62
2017-03-27T02:25:09.155Z,-0.47
2017-03-27T02:26:09.680Z,-0.43
2017-03-27T02:27:10.216Z,-0.46
2017-03-27T02:28:10.750Z,-0.44
2017-03-27T02:29:11.433Z,-0.49
2017-03-27T02:30:11.813Z,-0.54
2017-03-27T02:31:12.344Z,-0.54
2017-03-27T02:32:12.879Z,-0.61
2017-03-27T02:33:13.408Z,-0.65
2017-03-27T02:34:13.939Z,-0.67
2017-03-27T02:35:14.473Z,-0.61
2017-03-27T02:36:15.008Z,-0.56
2017-03-27T02:37:15.539Z,-0.55
2017-03-27T02:38:16.078Z,-0.56
2017-03-27T02:39:16.604Z,-0.61
2017-03-27T02:40:17.163Z,-0.62
2017-03-27T02:41:17.823Z,-0.65
2017-03-27T02:42:18.221Z,-0.65
2017-03-27T02:43:18.743Z,-0.65
2017-03-27T02:44:19.285Z,-0.59
2017-03-27T02:45:19.819Z,-0.50
2017-03-27T02:46:20.354Z,-0.46
2017-03-27T02:47:20.882Z,-0.44
2017-03-27T02:48:21.416Z,-0.40
2017-03-27T02:49:21.957Z,-0.42
2017-03-27T02:50:22.478Z,-0.40
2017-03-27T02:51:23.013Z,-0.40
2017-03-27T02:52:23.548Z,-0.43
2017-03-27T02:53:24.081Z,-0.46
2017-03-27T02:54:24.612Z,-0.47
2017-03-27T02:55:25.151Z,-0.50
2017-03-27T02:56:25.681Z,-0.55
2017-03-27T02:57:26.359Z,-0.63
2017-03-27T02:58:26.741Z,-0.67
2017-03-27T02:59:27.273Z,-0.72
2017-03-27T03:00:27.801Z,-0.75
2017-03-27T03:01:28.491Z,-0.70
2017-03-27T03:02:28.869Z,-0.72
2017-03-27T03:03:29.413Z,-0.77
2017-03-27T03:04:29.935Z,-0.81
2017-03-27T03:05:30.468Z,-0.84
2017-03-27T03:06:30.999Z,-0.88
2017-03-27T03:07:31.543Z,-0.91
2017-03-27T03:08:32.074Z,-0.89
2017-03-27T03:09:32.601Z,-0.89
2017-03-27T03:10:33.135Z,-0.93
2017-03-27T03:11:33.680Z,-0.95
2017-03-27T03:12:34.205Z,-0.96
2017-03-27T03:13:34.742Z,-0.99
2017-03-27T03:14:35.271Z,-0.99
2017-03-27T03:15:35.954Z,-0.97
2017-03-27T03:16:36.339Z,-0.97
2017-03-27T03:17:37.018Z,-1.00
2017-03-27T03:18:37.549Z,-1.03
2017-03-27T03:19:37.938Z,-1.06
2017-03-27T03:20:38.469Z,-1.07
2017-03-27T03:21:38.999Z,-1.10
2017-03-27T03:22:39.532Z,-1.11
2017-03-27T03:23:40.067Z,-1.13
2017-03-27T03:24:40.600Z,-1.10
2017-03-27T03:25:41.138Z,-1.11
2017-03-27T03:26:41.672Z,-1.11
2017-03-27T03:27:42.215Z,-1.11
2017-03-27T03:28:42.747Z,-1.08
2017-03-27T03:29:43.276Z,-1.06
2017-03-27T03:30:43.811Z,-1.06
2017-03-27T03:31:44.348Z,-1.02
2017-03-27T03:32:44.873Z,-0.97
2017-03-27T03:33:45.405Z,-0.95
2017-03-27T03:34:45.940Z,-0.95
2017-03-27T03:35:46.467Z,-0.91
2017-03-27T03:36:47.004Z,-0.88
2017-03-27T03:37:47.544Z,-0.89
2017-03-27T03:38:48.065Z,-0.91
2017-03-27T03:39:48.596Z,-0.92
2017-03-27T03:40:49.133Z,-0.99
2017-03-27T03:41:49.665Z,-1.00
2017-03-27T03:42:50.198Z,-0.97
2017-03-27T03:43:50.732Z,-0.92
2017-03-27T03:44:51.414Z,-0.91
2017-03-27T03:45:51.800Z,-0.96
2017-03-27T03:46:52.328Z,-0.97
2017-03-27T03:47:52.861Z,-0.99
2017-03-27T03:48:53.396Z,-1.03
2017-03-27T03:49:53.925Z,-1.00
2017-03-27T03:50:54.456Z,-0.86
2017-03-27T03:51:54.997Z,-0.78
2017-03-27T03:52:55.548Z,-0.70
2017-03-27T03:53:56.055Z,-0.72
2017-03-27T03:54:56.587Z,-0.70
2017-03-27T03:55:57.128Z,-0.69
2017-03-27T03:56:57.649Z,-0.63
2017-03-27T03:57:58.331Z,-0.61
2017-03-27T03:58:58.711Z,-0.65
2017-03-27T03:59:59.397Z,-0.69
2017-03-27T04:00:59.781Z,-0.75
2017-03-27T04:02:00.315Z,-0.80
2017-03-27T04:03:00.848Z,-0.86
2017-03-27T04:04:01.532Z,-0.95
2017-03-27T04:05:01.931Z,-1.00
2017-03-27T04:06:02.604Z,-1.07
2017-03-27T04:07:02.993Z,-1.13
2017-03-27T04:08:03.546Z,-1.14
2017-03-27T04:09:04.090Z,-1.10
2017-03-27T04:10:04.621Z,-1.06
2017-03-27T04:11:05.158Z,-1.02
2017-03-27T04:12:05.697Z,-0.97
2017-03-27T04:13:06.222Z,-0.92
2017-03-27T04:14:06.749Z,-0.86
2017-03-27T04:15:07.287Z,-0.82
2017-03-27T04:16:07.815Z,-0.82
2017-03-27T04:17:08.350Z,-0.88
2017-03-27T04:18:08.885Z,-0.95
2017-03-27T04:19:09.417Z,-0.99
2017-03-27T04:20:09.956Z,-1.03
2017-03-27T04:21:10.486Z,-1.10
2017-03-27T04:22:11.013Z,-1.14
2017-03-27T04:23:11.694Z,-1.15
2017-03-27T04:24:12.094Z,-1.18
2017-03-27T04:25:12.621Z,-1.15
2017-03-27T04:26:13.153Z,-1.17
2017-03-27T04:27:13.684Z,-1.24
2017-03-27T04:28:14.218Z,-1.25
2017-03-27T04:29:14.752Z,-1.29
2017-03-27T04:30:15.285Z,-1.32
2017-03-27T04:31:15.817Z,-1.33
2017-03-27T04:32:16.351Z,-1.38
2017-03-27T04:33:16.887Z,-1.40
2017-03-27T04:34:17.418Z,-1.43
2017-03-27T04:35:17.948Z,-1.43
2017-03-27T04:36:18.488Z,-1.44
2017-03-27T04:37:19.018Z,-1.43
2017-03-27T04:38:19.550Z,-1.37
2017-03-27T04:39:20.081Z,-1.33
2017-03-27T04:40:20.610Z,-1.36
2017-03-27T04:41:21.149Z,-1.38
2017-03-27T04:42:21.683Z,-1.41
2017-03-27T04:43:22.216Z,-1.44
2017-03-27T04:44:22.747Z,-1.47
2017-03-27T04:45:23.279Z,-1.48
2017-03-27T04:46:23.813Z,-1.52
2017-03-27T04:47:24.346Z,-1.55
2017-03-27T04:48:24.883Z,-1.59
2017-03-27T04:49:25.425Z,-1.60
2017-03-27T04:50:25.959Z,-1.60
2017-03-27T04:51:26.497Z,-1.60
2017-03-27T04:52:27.181Z,-1.60
2017-03-27T04:53:27.717Z,-1.58
2017-03-27T04:54:28.094Z,-1.51
2017-03-27T04:55:28.640Z,-1.40
2017-03-27T04:56:29.179Z,-1.38
2017-03-27T04:57:29.695Z,-1.45
2017-03-27T04:58:30.231Z,-1.52
2017-03-27T04:59:30.760Z,-1.55
2017-03-27T05:00:31.291Z,-1.60
2017-03-27T05:01:31.827Z,-1.67
2017-03-27T05:02:32.361Z,-1.73
2017-03-27T05:03:33.035Z,-1.73
2017-03-27T05:04:33.427Z,-1.74
2017-03-27T05:05:33.957Z,-1.77
2017-03-27T05:06:34.487Z,-1.78
2017-03-27T05:07:35.024Z,-1.80
2017-03-27T05:08:35.565Z,-1.78
2017-03-27T05:09:36.087Z,-1.78
2017-03-27T05:10:36.773Z,-1.81
2017-03-27T05:11:37.151Z,-1.85
2017-03-27T05:12:37.694Z,-1.88
2017-03-27T05:13:38.223Z,-1.91
2017-03-27T05:14:38.746Z,-1.88
2017-03-27T05:15:39.284Z,-1.78
2017-03-27T05:16:39.818Z,-1.76
2017-03-27T05:17:40.496Z,-1.73
2017-03-27T05:18:40.895Z,-1.73
2017-03-27T05:19:41.420Z,-1.71
2017-03-27T05:20:41.951Z,-1.74
2017-03-27T05:21:42.493Z,-1.77
2017-03-27T05:22:43.013Z,-1.80
2017-03-27T05:23:43.544Z,-1.76
2017-03-27T05:24:44.076Z,-1.71
2017-03-27T05:25:44.619Z,-1.70
2017-03-27T05:26:45.145Z,-1.71
2017-03-27T05:27:45.684Z,-1.73
2017-03-27T05:28:46.375Z,-1.73
2017-03-27T05:29:46.755Z,-1.73
2017-03-27T05:30:47.289Z,-1.71
2017-03-27T05:31:47.974Z,-1.73
2017-03-27T05:32:48.364Z,-1.70
2017-03-27T05:33:48.899Z,-1.69
2017-03-27T05:34:49.430Z,-1.69
2017-03-27T05:35:49.965Z,-1.70
2017-03-27T05:36:50.499Z,-1.71
2017-03-27T05:37:51.032Z,-1.71
2017-03-27T05:38:51.715Z,-1.71
2017-03-27T05:39:52.097Z,-1.71
2017-03-27T05:40:52.784Z,-1.69
2017-03-27T05:41:53.165Z,-1.67
2017-03-27T05:42:53.697Z,-1.70
2017-03-27T05:43:54.376Z,-1.65
2017-03-27T05:44:54.762Z,-1.60
2017-03-27T05:45:55.292Z,-1.45
2017-03-27T05:46:55.833Z,-1.28
2017-03-27T05:47:56.359Z,-1.21
2017-03-27T05:48:56.901Z,-1.19
2017-03-27T05:49:57.426Z,-1.21
2017-03-27T05:50:58.107Z,-1.18
2017-03-27T05:51:58.641Z,-1.22
2017-03-27T05:52:59.172Z,-1.22
2017-03-27T05:53:59.552Z,-1.28
2017-03-27T05:55:00.085Z,-1.29
2017-03-27T05:56:00.619Z,-1.26
2017-03-27T05:57:01.148Z,-1.18
2017-03-27T05:58:01.693Z,-1.04
2017-03-27T05:59:02.366Z,-0.78
2017-03-27T06:00:02.756Z,-0.59
2017-03-27T06:01:03.287Z,-0.35
2017-03-27T06:02:03.817Z,-0.20
2017-03-27T06:03:04.353Z,0.00
2017-03-27T06:04:04.881Z,0.13
2017-03-27T06:05:05.424Z,0.26
2017-03-27T06:06:05.946Z,0.40
2017-03-27T06:07:06.479Z,0.53
2017-03-27T06:08:07.022Z,0.68
2017-03-27T06:09:07.594Z,0.82
2017-03-27T06:10:08.079Z,0.94
2017-03-27T06:11:08.617Z,1.04
2017-03-27T06:12:09.154Z,1.11
2017-03-27T06:13:09.692Z,1.18
2017-03-27T06:14:10.227Z,1.24
2017-03-27T06:15:10.766Z,1.24
2017-03-27T06:16:11.299Z,1.25
2017-03-27T06:17:11.833Z,1.24
2017-03-27T06:18:12.361Z,1.20
2017-03-27T06:19:12.896Z,1.18
2017-03-27T06:20:13.428Z,1.17
2017-03-27T06:21:13.957Z,1.18
2017-03-27T06:22:14.496Z,1.15
2017-03-27T06:23:15.023Z,1.20
2017-03-27T06:24:15.559Z,1.24
2017-03-27T06:25:16.092Z,1.25
2017-03-27T06:26:16.625Z,1.28
2017-03-27T06:27:17.158Z,1.31
2017-03-27T06:28:17.842Z,1.36
2017-03-27T06:29:18.400Z,1.40
2017-03-27T06:30:18.762Z,1.43
2017-03-27T06:31:19.297Z,1.46
2017-03-27T06:32:19.829Z,1.46
2017-03-27T06:33:20.362Z,1.49
2017-03-27T06:34:20.892Z,1.54
2017-03-27T06:35:21.433Z,1.63
2017-03-27T06:36:21.961Z,1.76
2017-03-27T06:37:22.504Z,1.95
2017-03-27T06:38:23.172Z,2.12
2017-03-27T06:39:23.560Z,2.36
2017-03-27T06:40:24.089Z,2.51
2017-03-27T06:41:24.619Z,2.62
2017-03-27T06:42:25.157Z,2.77
2017-03-27T06:43:25.688Z,2.88
2017-03-27T06:44:26.221Z,3.01
2017-03-27T06:45:26.750Z,3.14
2017-03-27T06:46:27.285Z,3.26
2017-03-27T06:47:27.817Z,3.36
2017-03-27T06:48:28.354Z,3.51
2017-03-27T06:49:28.887Z,3.65
2017-03-27T06:50:29.579Z,3.74
2017-03-27T06:51:29.959Z,3.84
2017-03-27T06:52:30.491Z,4.00
2017-03-27T06:53:31.027Z,4.15
2017-03-27T06:54:31.573Z,4.29
2017-03-27T06:55:32.097Z,4.33
2017-03-27T06:56:32.630Z,4.35
2017-03-27T06:57:33.168Z,4.36
2017-03-27T06:58:33.703Z,4.48
2017-03-27T06:59:34.233Z,4.59
2017-03-27T07:00:34.763Z,4.70
2017-03-27T07:01:35.305Z,4.81
2017-03-27T07:02:35.831Z,4.88
2017-03-27T07:03:36.369Z,4.96
2017-03-27T07:04:36.896Z,5.10
2017-03-27T07:05:37.431Z,5.23
2017-03-27T07:06:37.959Z,5.38
2017-03-27T07:07:38.489Z,5.46
2017-03-27T07:08:39.027Z,5.52
2017-03-27T07:09:39.704Z,5.59
2017-03-27T07:10:40.090Z,5.64
2017-03-27T07:11:40.619Z,5.74
2017-03-27T07:12:41.150Z,5.81
2017-03-27T07:13:41.690Z,5.91
2017-03-27T07:14:42.369Z,6.00
2017-03-27T07:15:42.900Z,6.04
2017-03-27T07:16:43.287Z,6.19
2017-03-27T07:17:43.818Z,6.19
2017-03-27T07:18:44.351Z,6.14
2017-03-27T07:19:44.883Z,6.14
2017-03-27T07:20:45.420Z,6.16
2017-03-27T07:21:45.944Z,6.20
2017-03-27T07:22:46.480Z,6.31
2017-03-27T07:23:47.165Z,6.44
2017-03-27T07:24:47.546Z,6.57
2017-03-27T07:25:48.075Z,6.68
2017-03-27T07:26:48.611Z,6.75
2017-03-27T07:27:49.152Z,6.91
2017-03-27T07:28:49.674Z,7.01
2017-03-27T07:29:50.212Z,7.16
2017-03-27T07:30:50.741Z,7.26
2017-03-27T07:31:51.273Z,7.33
2017-03-27T07:32:51.808Z,7.24
2017-03-27T07:33:52.339Z,7.30
2017-03-27T07:34:52.874Z,7.48
2017-03-27T07:35:53.558Z,7.64
2017-03-27T07:36:53.953Z,7.74
2017-03-27T07:37:54.491Z,7.86
2017-03-27T07:38:55.023Z,7.93
2017-03-27T07:39:55.559Z,8.05
2017-03-27T07:40:56.093Z,8.17
2017-03-27T07:41:56.622Z,8.23
2017-03-27T07:42:57.154Z,8.43
2017-03-27T07:43:57.695Z,8.60
2017-03-27T07:44:58.223Z,8.79
2017-03-27T07:45:58.753Z,8.94
2017-03-27T07:46:59.286Z,8.98
2017-03-27T07:47:59.815Z,8.96
2017-03-27T07:49:00.355Z,9.04
2017-03-27T07:50:00.885Z,9.18
2017-03-27T07:51:01.413Z,9.28
2017-03-27T07:52:01.940Z,9.43
2017-03-27T07:53:02.475Z,9.55
2017-03-27T07:54:03.009Z,9.53
2017-03-27T07:55:03.544Z,9.58
2017-03-27T07:56:04.072Z,9.69
2017-03-27T07:57:04.611Z,9.72
2017-03-27T07:58:05.138Z,9.80
2017-03-27T07:59:05.670Z,9.76
2017-03-27T08:00:06.354Z,9.80
2017-03-27T08:01:06.735Z,9.86
2017-03-27T08:02:07.271Z,10.02
2017-03-27T08:03:07.811Z,10.16
2017-03-27T08:04:08.343Z,10.09
2017-03-27T08:05:08.871Z,10.01
2017-03-27T08:06:09.550Z,9.95
2017-03-27T08:07:10.102Z,9.87
2017-03-27T08:08:10.468Z,9.73
2017-03-27T08:09:10.994Z,9.72
2017-03-27T08:10:11.533Z,9.64
2017-03-27T08:11:12.060Z,9.65
2017-03-27T08:12:12.591Z,9.79
2017-03-27T08:13:13.126Z,9.97
2017-03-27T08:14:13.658Z,10.06
2017-03-27T08:15:14.194Z,10.02
2017-03-27T08:16:14.754Z,10.06
2017-03-27T08:17:15.257Z,10.16
2017-03-27T08:18:15.791Z,10.20
2017-03-27T08:19:16.334Z,10.32
2017-03-27T08:20:16.878Z,10.45
2017-03-27T08:21:17.405Z,10.53
2017-03-27T08:22:17.940Z,10.45
2017-03-27T08:23:18.620Z,10.52
2017-03-27T08:24:19.153Z,10.54
2017-03-27T08:25:19.561Z,10.58
2017-03-27T08:26:20.073Z,10.71
2017-03-27T08:27:20.602Z,10.79
2017-03-27T08:28:21.135Z,10.94
2017-03-27T08:29:21.682Z,11.05
2017-03-27T08:30:22.198Z,11.11
2017-03-27T08:31:22.732Z,11.07
2017-03-27T08:32:23.261Z,11.11
2017-03-27T08:33:23.795Z,11.09
2017-03-27T08:34:24.326Z,11.16
2017-03-27T08:35:24.862Z,11.18
2017-03-27T08:36:25.397Z,11.36
2017-03-27T08:37:25.927Z,11.17
2017-03-27T08:38:26.474Z,11.11
2017-03-27T08:39:26.995Z,11.09
2017-03-27T08:40:27.528Z,11.00
2017-03-27T08:41:28.063Z,10.88
2017-03-27T08:42:28.597Z,10.80
2017-03-27T08:43:29.127Z,10.77
2017-03-27T08:44:29.656Z,10.95
2017-03-27T08:45:30.188Z,11.24
2017-03-27T08:46:31.167Z,11.49
2017-03-27T08:47:31.252Z,11.76
2017-03-27T08:48:31.783Z,11.75
2017-03-27T08:49:32.312Z,11.94
2017-03-27T08:50:32.837Z,12.02
2017-03-27T08:51:33.377Z,11.97
2017-03-27T08:52:33.909Z,12.09
2017-03-27T08:53:34.439Z,12.33
2017-03-27T08:54:34.976Z,12.50
2017-03-27T08:55:35.503Z,12.60
2017-03-27T08:56:36.036Z,12.73
2017-03-27T08:57:36.567Z,12.64
2017-03-27T08:58:37.103Z,12.66
2017-03-27T08:59:37.637Z,12.84
2017-03-27T09:00:38.180Z,12.62
2017-03-27T09:01:38.713Z,12.57
2017-03-27T09:02:39.246Z,12.54
2017-03-27T09:03:39.785Z,12.75
2017-03-27T09:04:40.321Z,12.87
2017-03-27T09:05:40.848Z,12.95
2017-03-27T09:06:41.387Z,13.13
2017-03-27T09:07:41.912Z,13.36
2017-03-27T09:08:42.442Z,13.46
2017-03-27T09:09:42.975Z,13.59
2017-03-27T09:10:43.520Z,13.62
2017-03-27T09:11:44.040Z,13.70
2017-03-27T09:12:44.570Z,13.77
2017-03-27T09:13:45.105Z,13.83
2017-03-27T09:14:45.645Z,14.02
2017-03-27T09:15:46.468Z,13.93
2017-03-27T09:16:46.707Z,13.86
2017-03-27T09:17:47.236Z,13.99
2017-03-27T09:18:47.772Z,14.28
2017-03-27T09:19:48.302Z,14.15
2017-03-27T09:20:48.835Z,14.06
2017-03-27T09:21:49.387Z,14.31
2017-03-27T09:22:49.905Z,14.31
2017-03-27T09:23:50.435Z,14.22
2017-03-27T09:24:50.978Z,14.40
2017-03-27T09:25:51.505Z,14.44
2017-03-27T09:26:52.043Z,14.36
2017-03-27T09:27:52.579Z,14.32
2017-03-27T09:28:53.100Z,14.42
2017-03-27T09:29:53.638Z,14.65
2017-03-27T09:30:54.181Z,14.68
2017-03-27T09:31:54.707Z,14.62
2017-03-27T09:32:55.235Z,14.73
2017-03-27T09:33:55.770Z,14.87
2017-03-27T09:34:56.296Z,15.03
2017-03-27T09:35:56.831Z,15.10
2017-03-27T09:36:57.379Z,15.06
2017-03-27T09:37:57.895Z,15.02
2017-03-27T09:38:58.427Z,14.91
2017-03-27T09:39:58.965Z,14.96
2017-03-27T09:40:59.497Z,14.72
2017-03-27T09:42:00.054Z,14.78
2017-03-27T09:43:00.566Z,14.95
2017-03-27T09:44:01.104Z,14.95
2017-03-27T09:45:01.636Z,15.21
2017-03-27T09:46:02.172Z,15.37
2017-03-27T09:47:02.700Z,15.51
2017-03-27T09:48:03.239Z,15.39
2017-03-27T09:49:03.765Z,15.36
2017-03-27T09:50:04.297Z,15.57
2017-03-27T09:51:04.829Z,15.62
2017-03-27T09:52:05.366Z,15.79
2017-03-27T09:53:05.897Z,15.66
2017-03-27T09:54:06.432Z,15.82
2017-03-27T09:55:06.965Z,16.06
2017-03-27T09:56:07.495Z,16.18
2017-03-27T09:57:08.034Z,15.95
2017-03-27T09:58:08.562Z,16.14
2017-03-27T09:59:09.095Z,16.32
2017-03-27T10:00:09.643Z,16.17
2017-03-27T10:01:10.152Z,16.24
2017-03-27T10:02:10.686Z,16.35
2017-03-27T10:03:11.214Z,16.46
2017-03-27T10:04:11.749Z,16.66
2017-03-27T10:05:12.279Z,16.81
2017-03-27T10:06:12.821Z,16.97
2017-03-27T10:07:13.352Z,17.02
2017-03-27T10:08:13.882Z,16.98
2017-03-27T10:09:14.415Z,16.98
2017-03-27T10:10:14.939Z,17.14
2017-03-27T10:11:15.476Z,17.32
2017-03-27T10:12:16.156Z,17.21
2017-03-27T10:13:16.543Z,16.68
2017-03-27T10:14:17.071Z,16.03
2017-03-27T10:15:17.604Z,16.25
2017-03-27T10:16:18.143Z,16.59
2017-03-27T10:17:18.669Z,16.84
2017-03-27T10:18:19.208Z,17.02
2017-03-27T10:19:19.889Z,17.13
2017-03-27T10:20:20.270Z,17.02
2017-03-27T10:21:20.816Z,17.12
2017-03-27T10:22:21.364Z,17.08
2017-03-27T10:23:21.869Z,16.77
2017-03-27T10:24:22.408Z,16.84
2017-03-27T10:25:22.939Z,17.03
2017-03-27T10:26:23.474Z,17.20
2017-03-27T10:27:24.006Z,17.37
2017-03-27T10:28:24.538Z,17.68
2017-03-27T10:29:25.070Z,17.80
2017-03-27T10:30:25.605Z,17.61
2017-03-27T10:31:26.143Z,17.57
2017-03-27T10:32:26.668Z,17.65
2017-03-27T10:33:27.199Z,17.60
2017-03-27T10:34:27.730Z,17.62
2017-03-27T10:35:28.261Z,17.51
2017-03-27T10:36:28.793Z,17.29
2017-03-27T10:37:29.321Z,17.35
2017-03-27T10:38:29.860Z,17.46
2017-03-27T10:39:30.534Z,17.64
2017-03-27T10:40:30.919Z,17.80
2017-03-27T10:41:31.457Z,17.68
2017-03-27T10:42:31.983Z,17.83
2017-03-27T10:43:32.514Z,17.94
2017-03-27T10:44:33.044Z,18.28
2017-03-27T10:45:33.580Z,18.47
2017-03-27T10:46:34.116Z,18.65
2017-03-27T10:47:34.641Z,18.58
2017-03-27T10:48:35.177Z,17.98
2017-03-27T10:49:35.731Z,17.89
2017-03-27T10:50:36.260Z,17.99
2017-03-27T10:51:36.769Z,18.16
2017-03-27T10:52:37.301Z,18.51
2017-03-27T10:53:37.855Z,18.59
2017-03-27T10:54:38.364Z,18.20
2017-03-27T10:55:38.903Z,17.88
2017-03-27T10:56:39.429Z,17.68
2017-03-27T10:57:39.959Z,17.64
2017-03-27T10:58:40.503Z,17.47
2017-03-27T10:59:41.031Z,17.31
2017-03-27T11:00:41.558Z,17.05
2017-03-27T11:01:42.090Z,16.97
2017-03-27T11:02:42.626Z,17.03
2017-03-27T11:03:43.163Z,16.92
2017-03-27T11:04:43.694Z,16.97
2017-03-27T11:05:44.235Z,16.98
2017-03-27T11:06:44.768Z,16.94
2017-03-27T11:07:45.302Z,16.98
2017-03-27T11:08:45.833Z,17.14
2017-03-27T11:09:46.369Z,17.21
2017-03-27T11:10:46.920Z,17.26
2017-03-27T11:11:47.429Z,17.51
2017-03-27T11:12:47.964Z,17.53
2017-03-27T11:13:48.496Z,17.40
2017-03-27T11:14:49.032Z,17.08
2017-03-27T11:15:49.569Z,17.26
2017-03-27T11:16:50.091Z,17.55
2017-03-27T11:17:50.623Z,17.87
2017-03-27T11:18:51.155Z,18.16
2017-03-27T11:19:51.684Z,18.47
2017-03-27T11:20:52.217Z,18.46
2017-03-27T11:21:52.746Z,17.91
2017-03-27T11:22:53.279Z,17.65
2017-03-27T11:23:53.812Z,17.72
2017-03-27T11:24:54.352Z,17.94
2017-03-27T11:25:54.887Z,18.34
2017-03-27T11:26:55.409Z,18.10
2017-03-27T11:27:55.954Z,17.66
2017-03-27T11:28:56.475Z,17.95
2017-03-27T11:29:57.155Z,18.12
2017-03-27T11:30:57.538Z,18.18
2017-03-27T11:31:58.073Z,18.17
2017-03-27T11:32:58.601Z,18.44
2017-03-27T11:33:59.128Z,18.69
2017-03-27T11:34:59.662Z,18.34
2017-03-27T11:36:00.197Z,18.48
2017-03-27T11:37:00.729Z,18.79
2017-03-27T11:38:01.260Z,19.02
2017-03-27T11:39:01.800Z,19.06
2017-03-27T11:40:02.322Z,19.17
2017-03-27T11:41:02.859Z,19.43
2017-03-27T11:42:03.387Z,19.40
2017-03-27T11:43:03.922Z,19.51
2017-03-27T11:44:04.601Z,19.80
2017-03-27T11:45:04.986Z,19.99
2017-03-27T11:46:05.519Z,20.02
2017-03-27T11:47:06.062Z,19.55
2017-03-27T11:48:06.603Z,19.24
2017-03-27T11:49:07.138Z,19.20
2017-03-27T11:50:07.670Z,19.43
2017-03-27T11:51:08.201Z,19.70
2017-03-27T11:52:08.761Z,20.01
2017-03-27T11:53:09.265Z,20.28
2017-03-27T11:54:09.797Z,20.32
2017-03-27T11:55:10.337Z,20.47
2017-03-27T11:56:10.865Z,20.17
2017-03-27T11:57:11.394Z,20.16
2017-03-27T11:58:11.928Z,19.76
2017-03-27T11:59:12.465Z,19.39
2017-03-27T12:00:12.992Z,19.06
2017-03-27T12:01:13.525Z,19.31
2017-03-27T12:02:14.054Z,19.33
2017-03-27T12:03:14.590Z,19.13
2017-03-27T12:04:15.145Z,19.51
2017-03-27T12:05:15.674Z,19.83
2017-03-27T12:06:16.188Z,19.61
2017-03-27T12:07:16.719Z,19.57
2017-03-27T12:08:17.252Z,19.57
2017-03-27T12:09:17.783Z,19.64
2017-03-27T12:10:18.312Z,20.02
2017-03-27T12:11:18.848Z,20.31
2017-03-27T12:12:19.378Z,20.36
2017-03-27T12:13:19.906Z,20.46
2017-03-27T12:14:20.440Z,20.47
2017-03-27T12:15:20.974Z,20.27
2017-03-27T12:16:21.507Z,20.16
2017-03-27T12:17:22.038Z,19.81
2017-03-27T12:18:22.577Z,19.94
2017-03-27T12:19:23.107Z,19.62
2017-03-27T12:20:23.643Z,19.72
2017-03-27T12:21:24.167Z,19.79
2017-03-27T12:22:24.706Z,19.80
2017-03-27T12:23:25.236Z,19.53
2017-03-27T12:24:25.779Z,19.40
2017-03-27T12:25:26.294Z,19.05
2017-03-27T12:26:26.822Z,18.76
2017-03-27T12:27:27.359Z,18.62
2017-03-27T12:28:27.896Z,18.73
2017-03-27T12:29:28.432Z,18.77
2017-03-27T12:30:29.123Z,18.98
2017-03-27T12:31:29.506Z,18.98
2017-03-27T12:32:30.041Z,19.03
2017-03-27T12:33:30.574Z,19.50
2017-03-27T12:34:31.106Z,19.50
2017-03-27T12:35:31.638Z,19.55
2017-03-27T12:36:32.188Z,19.62
2017-03-27T12:37:32.701Z,19.39
2017-03-27T12:38:33.236Z,19.33
2017-03-27T12:39:33.768Z,19.47
2017-03-27T12:40:34.300Z,19.03
2017-03-27T12:41:34.833Z,19.32
2017-03-27T12:42:35.365Z,19.35
2017-03-27T12:43:35.891Z,19.38
2017-03-27T12:44:36.443Z,19.08
2017-03-27T12:45:36.952Z,19.12
2017-03-27T12:46:37.636Z,19.17
2017-03-27T12:47:38.164Z,19.35
2017-03-27T12:48:38.559Z,19.38
2017-03-27T12:49:39.084Z,19.40
2017-03-27T12:50:39.619Z,19.61
2017-03-27T12:51:40.151Z,19.73
2017-03-27T12:52:40.682Z,19.74
2017-03-27T12:53:41.216Z,19.77
2017-03-27T12:54:41.763Z,19.85
2017-03-27T12:55:42.284Z,19.79
2017-03-27T12:56:42.812Z,19.94
2017-03-27T12:57:43.344Z,19.95
2017-03-27T12:58:43.877Z,19.88
2017-03-27T12:59:44.406Z,19.91
2017-03-27T13:00:44.937Z,19.81
2017-03-27T13:01:45.508Z,19.77
2017-03-27T13:02:46.007Z,19.70
2017-03-27T13:03:46.537Z,19.96
2017-03-27T13:04:47.068Z,20.20
2017-03-27T13:05:47.596Z,20.35
2017-03-27T13:06:48.123Z,20.21